sensor_id;sensor_type;location;lat;lon;timestamp;temperature;humidity
33841;DHT22;20142;28.494;-16.312;2022-12-18T10:27:15;19.60;88.60
33841;DHT22;20142;28.494;-16.312;2022-12-18T10:32:22;20.00;88.60
33841;DHT22;20142;28.494;-16.312;2022-12-18T10:37:28;20.00;87.20
33841;DHT22;20142;28.494;-16.312;2022-12-18T10:42:31;20.10;86.50
33841;DHT22;20142;28.494;-16.312;2022-12-18T10:47:33;20.40;85.50
33841;DHT22;20142;28.494;-16.312;2022-12-18T10:52:36;20.20;84.90
33841;DHT22;20142;28.494;-16.312;2022-12-18T10:57:39;20.10;84.90
33841;DHT22;20142;28.494;-16.312;2022-12-18T11:02:42;20.70;84.80
33841;DHT22;20142;28.494;-16.312;2022-12-18T11:07:49;20.90;83.70
33841;DHT22;20142;28.494;-16.312;2022-12-18T11:12:55;20.80;83.40
33841;DHT22;20142;28.494;-16.312;2022-12-18T11:17:57;20.90;82.70
33841;DHT22;20142;28.494;-16.312;2022-12-18T11:23:10;21.00;82.30
33841;DHT22;20142;28.494;-16.312;2022-12-18T11:28:26;21.00;81.70
33841;DHT22;20142;28.494;-16.312;2022-12-18T11:34:11;21.00;81.30
33841;DHT22;20142;28.494;-16.312;2022-12-18T11:45:27;21.20;80.90
33841;DHT22;20142;28.494;-16.312;2022-12-18T11:50:43;21.20;80.60
33841;DHT22;20142;28.494;-16.312;2022-12-18T11:56:26;21.40;80.40
33841;DHT22;20142;28.494;-16.312;2022-12-18T12:01:53;21.30;80.30
33841;DHT22;20142;28.494;-16.312;2022-12-18T12:07:04;21.40;80.00
33841;DHT22;20142;28.494;-16.312;2022-12-18T12:39:47;22.10;78.40
33841;DHT22;20142;28.494;-16.312;2022-12-18T12:44:54;22.00;78.90
33841;DHT22;20142;28.494;-16.312;2022-12-18T12:49:58;21.50;78.90
33841;DHT22;20142;28.494;-16.312;2022-12-18T12:55:05;21.40;79.20
33841;DHT22;20142;28.494;-16.312;2022-12-18T13:00:18;21.60;78.70
33841;DHT22;20142;28.494;-16.312;2022-12-18T13:05:30;21.60;78.40
33841;DHT22;20142;28.494;-16.312;2022-12-18T13:10:41;21.50;78.70
33841;DHT22;20142;28.494;-16.312;2022-12-18T13:36:40;21.90;77.80
33841;DHT22;20142;28.494;-16.312;2022-12-18T13:41:42;21.70;77.50
33841;DHT22;20142;28.494;-16.312;2022-12-18T13:46:47;21.70;78.10
33841;DHT22;20142;28.494;-16.312;2022-12-18T13:51:52;22.10;77.50
33841;DHT22;20142;28.494;-16.312;2022-12-18T13:56:55;22.30;77.80
33841;DHT22;20142;28.494;-16.312;2022-12-18T14:01:59;22.30;77.00
33841;DHT22;20142;28.494;-16.312;2022-12-18T14:12:27;22.20;77.60
33841;DHT22;20142;28.494;-16.312;2022-12-18T14:18:18;22.10;77.10
33841;DHT22;20142;28.494;-16.312;2022-12-18T14:23:37;22.00;77.20
33841;DHT22;20142;28.494;-16.312;2022-12-18T14:28:44;22.00;77.60
33841;DHT22;20142;28.494;-16.312;2022-12-18T14:33:46;22.20;77.40
33841;DHT22;20142;28.494;-16.312;2022-12-18T14:38:49;22.50;77.10
33841;DHT22;20142;28.494;-16.312;2022-12-18T14:43:54;22.70;77.30
33841;DHT22;20142;28.494;-16.312;2022-12-18T14:48:56;23.10;77.30
33841;DHT22;20142;28.494;-16.312;2022-12-18T14:54:01;23.60;76.70
33841;DHT22;20142;28.494;-16.312;2022-12-18T14:59:25;23.90;74.80
33841;DHT22;20142;28.494;-16.312;2022-12-18T15:04:32;24.00;74.80
33841;DHT22;20142;28.494;-16.312;2022-12-18T15:09:42;23.80;73.90
33841;DHT22;20142;28.494;-16.312;2022-12-18T15:15:41;23.20;75.10
33841;DHT22;20142;28.494;-16.312;2022-12-18T15:20:56;23.00;74.20
33841;DHT22;20142;28.494;-16.312;2022-12-18T15:26:07;22.90;75.50
33841;DHT22;20142;28.494;-16.312;2022-12-18T15:36:16;23.10;74.90
33841;DHT22;20142;28.494;-16.312;2022-12-18T15:41:20;23.10;75.40
33841;DHT22;20142;28.494;-16.312;2022-12-18T15:46:24;22.70;74.00
33841;DHT22;20142;28.494;-16.312;2022-12-18T15:51:31;22.70;75.10
33841;DHT22;20142;28.494;-16.312;2022-12-18T15:56:34;22.80;74.70
33841;DHT22;20142;28.494;-16.312;2022-12-18T16:01:54;22.30;75.00
33841;DHT22;20142;28.494;-16.312;2022-12-18T16:06:55;22.60;74.90
33841;DHT22;20142;28.494;-16.312;2022-12-18T16:11:57;23.00;75.30
33841;DHT22;20142;28.494;-16.312;2022-12-18T16:17:05;23.20;74.10
33841;DHT22;20142;28.494;-16.312;2022-12-18T16:22:19;23.10;73.60
33841;DHT22;20142;28.494;-16.312;2022-12-18T16:27:23;23.00;74.90
33841;DHT22;20142;28.494;-16.312;2022-12-18T16:32:26;23.10;74.20
33841;DHT22;20142;28.494;-16.312;2022-12-18T16:37:27;23.40;74.30
33841;DHT22;20142;28.494;-16.312;2022-12-18T16:42:29;25.70;72.10
33841;DHT22;20142;28.494;-16.312;2022-12-18T16:47:30;25.40;71.20
33841;DHT22;20142;28.494;-16.312;2022-12-18T16:52:33;25.00;71.10
33841;DHT22;20142;28.494;-16.312;2022-12-18T16:57:35;24.40;71.50
33841;DHT22;20142;28.494;-16.312;2022-12-18T17:02:37;24.10;72.30
33841;DHT22;20142;28.494;-16.312;2022-12-18T17:07:39;23.00;73.40
33841;DHT22;20142;28.494;-16.312;2022-12-18T17:12:40;22.60;75.00
33841;DHT22;20142;28.494;-16.312;2022-12-18T17:17:42;22.40;74.50
33841;DHT22;20142;28.494;-16.312;2022-12-18T17:22:44;22.10;74.90
33841;DHT22;20142;28.494;-16.312;2022-12-18T17:27:46;22.00;74.90
33841;DHT22;20142;28.494;-16.312;2022-12-18T17:32:48;21.60;75.80
33841;DHT22;20142;28.494;-16.312;2022-12-18T17:37:49;21.70;75.50
33841;DHT22;20142;28.494;-16.312;2022-12-18T17:42:52;21.60;76.00
33841;DHT22;20142;28.494;-16.312;2022-12-18T17:47:53;21.70;76.00
33841;DHT22;20142;28.494;-16.312;2022-12-18T17:52:56;21.40;75.80
33841;DHT22;20142;28.494;-16.312;2022-12-18T17:57:58;21.10;76.20
33841;DHT22;20142;28.494;-16.312;2022-12-18T18:02:59;20.90;77.10
33841;DHT22;20142;28.494;-16.312;2022-12-18T18:08:01;20.70;77.30
33841;DHT22;20142;28.494;-16.312;2022-12-18T18:13:04;20.50;77.30
33841;DHT22;20142;28.494;-16.312;2022-12-18T18:18:24;20.40;77.80
33841;DHT22;20142;28.494;-16.312;2022-12-18T18:23:26;20.40;78.00
33841;DHT22;20142;28.494;-16.312;2022-12-18T18:28:31;20.30;78.10
33841;DHT22;20142;28.494;-16.312;2022-12-18T18:33:33;20.30;78.00
33841;DHT22;20142;28.494;-16.312;2022-12-18T18:38:35;20.30;78.30
33841;DHT22;20142;28.494;-16.312;2022-12-18T18:43:39;20.30;78.40
33841;DHT22;20142;28.494;-16.312;2022-12-18T18:48:40;20.30;78.40
33841;DHT22;20142;28.494;-16.312;2022-12-18T18:53:44;20.30;78.40
33841;DHT22;20142;28.494;-16.312;2022-12-18T18:58:47;20.00;78.90
33841;DHT22;20142;28.494;-16.312;2022-12-18T19:03:49;19.90;79.40
33841;DHT22;20142;28.494;-16.312;2022-12-18T19:08:52;19.80;79.40
33841;DHT22;20142;28.494;-16.312;2022-12-18T19:13:56;19.70;79.60
33841;DHT22;20142;28.494;-16.312;2022-12-18T19:18:59;19.70;79.70
33841;DHT22;20142;28.494;-16.312;2022-12-18T19:24:01;19.60;80.00
33841;DHT22;20142;28.494;-16.312;2022-12-18T19:29:05;19.60;80.20
33841;DHT22;20142;28.494;-16.312;2022-12-18T19:34:08;19.70;80.10
33841;DHT22;20142;28.494;-16.312;2022-12-18T19:39:14;19.70;80.40
33841;DHT22;20142;28.494;-16.312;2022-12-18T19:44:17;19.70;80.20
33841;DHT22;20142;28.494;-16.312;2022-12-18T19:49:20;19.60;80.10
33841;DHT22;20142;28.494;-16.312;2022-12-18T19:54:21;19.50;80.60
33841;DHT22;20142;28.494;-16.312;2022-12-18T19:59:23;19.00;80.20
33841;DHT22;20142;28.494;-16.312;2022-12-18T20:04:25;18.50;81.10
33841;DHT22;20142;28.494;-16.312;2022-12-18T20:09:26;18.30;81.10
33841;DHT22;20142;28.494;-16.312;2022-12-18T20:14:28;18.20;81.40
33841;DHT22;20142;28.494;-16.312;2022-12-18T20:19:30;18.10;82.10
33841;DHT22;20142;28.494;-16.312;2022-12-18T20:24:32;17.90;82.00
33841;DHT22;20142;28.494;-16.312;2022-12-18T20:29:34;17.90;82.30
33841;DHT22;20142;28.494;-16.312;2022-12-18T20:34:35;17.80;82.60
33841;DHT22;20142;28.494;-16.312;2022-12-18T20:39:37;17.80;82.60
33841;DHT22;20142;28.494;-16.312;2022-12-18T20:44:39;17.80;82.80
33841;DHT22;20142;28.494;-16.312;2022-12-18T20:49:41;17.80;82.60
33841;DHT22;20142;28.494;-16.312;2022-12-18T20:54:42;17.80;82.90
33841;DHT22;20142;28.494;-16.312;2022-12-18T20:59:44;17.80;82.70
33841;DHT22;20142;28.494;-16.312;2022-12-18T21:04:46;17.50;82.70
33841;DHT22;20142;28.494;-16.312;2022-12-18T21:09:48;17.50;82.80
33841;DHT22;20142;28.494;-16.312;2022-12-18T21:14:49;17.40;83.10
33841;DHT22;20142;28.494;-16.312;2022-12-18T21:19:51;17.50;83.20
33841;DHT22;20142;28.494;-16.312;2022-12-18T21:24:53;17.40;83.40
33841;DHT22;20142;28.494;-16.312;2022-12-18T21:29:55;17.30;83.20
33841;DHT22;20142;28.494;-16.312;2022-12-18T21:34:56;17.20;83.50
33841;DHT22;20142;28.494;-16.312;2022-12-18T21:39:58;17.10;83.50
33841;DHT22;20142;28.494;-16.312;2022-12-18T21:45:00;17.00;83.80
33841;DHT22;20142;28.494;-16.312;2022-12-18T21:50:02;17.10;83.60
33841;DHT22;20142;28.494;-16.312;2022-12-18T21:55:04;16.60;83.60
33841;DHT22;20142;28.494;-16.312;2022-12-18T22:00:10;16.60;84.10
33841;DHT22;20142;28.494;-16.312;2022-12-18T22:05:13;16.60;84.30
33841;DHT22;20142;28.494;-16.312;2022-12-18T22:10:15;16.60;83.80
33841;DHT22;20142;28.494;-16.312;2022-12-18T22:15:16;16.50;84.00
33841;DHT22;20142;28.494;-16.312;2022-12-18T22:20:18;16.60;84.10
33841;DHT22;20142;28.494;-16.312;2022-12-18T22:25:20;16.70;84.10
33841;DHT22;20142;28.494;-16.312;2022-12-18T22:30:21;16.70;83.60
33841;DHT22;20142;28.494;-16.312;2022-12-18T22:35:23;16.60;83.50
33841;DHT22;20142;28.494;-16.312;2022-12-18T22:40:26;16.50;83.60
33841;DHT22;20142;28.494;-16.312;2022-12-18T22:45:28;16.50;83.60
33841;DHT22;20142;28.494;-16.312;2022-12-18T22:50:30;16.30;83.50
33841;DHT22;20142;28.494;-16.312;2022-12-18T22:55:33;16.30;84.00
33841;DHT22;20142;28.494;-16.312;2022-12-18T23:00:35;16.20;83.80
33841;DHT22;20142;28.494;-16.312;2022-12-18T23:05:37;16.10;83.70
33841;DHT22;20142;28.494;-16.312;2022-12-18T23:10:38;16.00;84.00
33841;DHT22;20142;28.494;-16.312;2022-12-18T23:15:41;16.00;83.80
33841;DHT22;20142;28.494;-16.312;2022-12-18T23:20:43;15.80;83.80
33841;DHT22;20142;28.494;-16.312;2022-12-18T23:25:44;15.80;84.20
33841;DHT22;20142;28.494;-16.312;2022-12-18T23:30:46;16.00;84.20
33841;DHT22;20142;28.494;-16.312;2022-12-18T23:35:48;15.80;83.60
33841;DHT22;20142;28.494;-16.312;2022-12-18T23:40:49;15.70;83.50
33841;DHT22;20142;28.494;-16.312;2022-12-18T23:45:51;15.50;83.90
33841;DHT22;20142;28.494;-16.312;2022-12-18T23:50:53;15.60;84.20
33841;DHT22;20142;28.494;-16.312;2022-12-18T23:55:55;15.50;83.80
